RJSH(METAR)
07/27 18:00
METAR RJSH 270900Z VRB02KT 2000 BR SCT002 BKN006 OVC010 21/21 Q1003
RMK 4ST002 6ST006 8ST010 A2963=
戻る
トップページへ戻る
IMOC Co,.Ltd.